createdAt,value
2016-12-27T00:00:49.871Z,62.00
2016-12-27T00:01:39.850Z,62.00
2016-12-27T00:02:44.688Z,61.98
2016-12-27T00:03:44.368Z,62.01
2016-12-27T00:04:49.979Z,61.08
2016-12-27T00:05:45.339Z,60.84
2016-12-27T00:06:38.699Z,60.72
2016-12-27T00:07:55.588Z,60.75
2016-12-27T00:08:39.959Z,61.58
2016-12-27T00:09:45.109Z,61.82
2016-12-27T00:10:45.296Z,61.91
2016-12-27T00:11:44.977Z,61.97
2016-12-27T00:12:49.337Z,61.94
2016-12-27T00:13:48.790Z,62.01
2016-12-27T00:14:43.087Z,62.03
2016-12-27T00:15:43.167Z,62.04
2016-12-27T00:16:53.492Z,62.04
2016-12-27T00:17:59.320Z,62.08
2016-12-27T00:18:45.483Z,62.08
2016-12-27T00:19:45.585Z,62.05
2016-12-27T00:20:43.527Z,62.05
2016-12-27T00:21:45.969Z,62.06
2016-12-27T00:22:45.440Z,62.05
2016-12-27T00:23:45.744Z,62.12
2016-12-27T00:24:56.037Z,62.11
2016-12-27T00:25:48.421Z,62.09
2016-12-27T00:26:48.759Z,62.10
2016-12-27T00:27:43.051Z,62.10
2016-12-27T00:28:43.300Z,62.12
2016-12-27T00:29:39.916Z,62.12
2016-12-27T00:30:38.757Z,62.15
2016-12-27T00:31:52.008Z,62.15
2016-12-27T00:32:45.177Z,62.15
2016-12-27T00:33:46.377Z,62.12
2016-12-27T00:34:40.396Z,62.14
2016-12-27T00:35:53.177Z,62.12
2016-12-27T00:36:39.669Z,62.20
2016-12-27T00:37:40.179Z,62.14
2016-12-27T00:38:44.727Z,62.16
2016-12-27T00:39:53.925Z,62.19
2016-12-27T00:40:48.386Z,62.18
2016-12-27T00:41:39.213Z,62.19
2016-12-27T00:42:45.297Z,62.16
2016-12-27T00:43:44.838Z,62.16
2016-12-27T00:44:40.398Z,62.13
2016-12-27T00:45:59.721Z,62.16
2016-12-27T00:46:52.194Z,62.18
2016-12-27T00:48:06.688Z,62.18
2016-12-27T00:48:46.149Z,62.18
2016-12-27T00:49:46.261Z,62.19
2016-12-27T00:50:44.277Z,62.22
2016-12-27T00:51:52.312Z,62.20
2016-12-27T00:52:48.975Z,62.22
2016-12-27T00:53:45.617Z,62.19
2016-12-27T00:54:49.863Z,62.19
2016-12-27T00:55:51.396Z,62.21
2016-12-27T00:56:46.175Z,62.18
2016-12-27T00:57:49.654Z,62.22
2016-12-27T00:58:45.383Z,62.22
2016-12-27T00:59:51.967Z,62.23
2016-12-27T01:00:49.755Z,62.26
2016-12-27T01:01:57.666Z,62.32
2016-12-27T01:02:42.255Z,62.33
2016-12-27T01:03:44.633Z,62.35
2016-12-27T01:04:49.324Z,62.36
2016-12-27T01:05:49.602Z,62.37
2016-12-27T01:06:46.973Z,62.36
2016-12-27T01:07:50.479Z,62.36
2016-12-27T01:08:47.154Z,62.40
2016-12-27T01:09:48.906Z,62.41
2016-12-27T01:10:40.248Z,62.41
2016-12-27T01:11:46.735Z,62.42
2016-12-27T01:12:50.016Z,62.39
2016-12-27T01:13:50.082Z,62.40
2016-12-27T01:14:49.034Z,62.40
2016-12-27T01:15:47.626Z,62.42
2016-12-27T01:16:44.715Z,62.39
2016-12-27T01:17:51.082Z,62.23
2016-12-27T01:18:44.481Z,61.40
2016-12-27T01:19:45.634Z,61.20
2016-12-27T01:20:54.374Z,61.08
2016-12-27T01:21:48.557Z,61.04
2016-12-27T01:22:48.359Z,61.00
2016-12-27T01:23:49.382Z,60.98
2016-12-27T01:24:34.499Z,60.96
2016-12-27T01:26:38.406Z,61.92
2016-12-27T01:26:48.879Z,62.14
2016-12-27T01:28:05.846Z,62.29
2016-12-27T01:28:46.850Z,62.34
2016-12-27T01:29:51.193Z,62.38
2016-12-27T01:30:49.741Z,62.40
2016-12-27T01:31:40.995Z,62.41
2016-12-27T01:32:44.057Z,62.47
2016-12-27T01:33:44.125Z,62.47
2016-12-27T01:34:49.408Z,62.47
2016-12-27T01:35:50.065Z,62.49
2016-12-27T01:36:45.529Z,62.51
2016-12-27T01:37:45.925Z,62.53
2016-12-27T01:38:45.538Z,62.54
2016-12-27T01:39:40.119Z,62.54
2016-12-27T01:40:50.192Z,62.58
2016-12-27T01:41:49.171Z,62.56
2016-12-27T01:42:43.216Z,62.58
2016-12-27T01:43:48.587Z,62.60
2016-12-27T01:44:49.909Z,62.59
2016-12-27T01:45:43.990Z,62.60
2016-12-27T01:46:40.412Z,62.60
2016-12-27T01:47:49.446Z,62.62
2016-12-27T01:48:39.832Z,62.61
2016-12-27T01:49:50.299Z,62.61
2016-12-27T01:50:41.832Z,62.63
2016-12-27T01:51:49.755Z,62.65
2016-12-27T01:52:44.719Z,62.65
2016-12-27T01:53:50.572Z,62.60
2016-12-27T01:54:47.289Z,62.59
2016-12-27T01:55:39.409Z,62.63
2016-12-27T01:56:54.190Z,62.61
2016-12-27T01:57:45.607Z,62.61
2016-12-27T01:58:43.683Z,62.62
2016-12-27T01:59:38.485Z,62.66
2016-12-27T02:00:46.477Z,62.63
2016-12-27T02:01:45.140Z,62.65
2016-12-27T02:02:55.020Z,62.65
2016-12-27T02:03:43.533Z,62.65
2016-12-27T02:04:52.547Z,62.67
2016-12-27T02:05:49.404Z,62.69
2016-12-27T02:06:45.053Z,62.69
2016-12-27T02:07:54.121Z,62.67
2016-12-27T02:08:39.449Z,62.69
2016-12-27T02:09:47.134Z,62.68
2016-12-27T02:10:44.316Z,62.69
2016-12-27T02:11:39.117Z,62.71
2016-12-27T02:12:51.993Z,62.70
2016-12-27T02:13:58.314Z,62.73
2016-12-27T02:14:39.794Z,62.71
2016-12-27T02:15:55.619Z,62.69
2016-12-27T02:16:43.199Z,62.71
2016-12-27T02:17:43.226Z,62.72
2016-12-27T02:18:53.624Z,62.55
2016-12-27T02:19:44.045Z,61.77
2016-12-27T02:20:49.886Z,61.66
2016-12-27T02:21:45.129Z,61.48
2016-12-27T02:22:39.886Z,61.41
2016-12-27T02:23:59.306Z,61.41
2016-12-27T02:24:52.545Z,62.39
2016-12-27T02:25:43.640Z,62.58
2016-12-27T02:26:45.496Z,62.66
2016-12-27T02:27:43.601Z,62.71
2016-12-27T02:28:38.681Z,62.76
2016-12-27T02:29:45.390Z,62.77
2016-12-27T02:30:39.071Z,62.80
2016-12-27T02:31:44.723Z,62.85
2016-12-27T02:32:45.621Z,62.86
2016-12-27T02:33:43.916Z,62.89
2016-12-27T02:34:46.787Z,62.87
2016-12-27T02:35:44.762Z,62.91
2016-12-27T02:36:47.471Z,62.91
2016-12-27T02:37:39.618Z,62.91
2016-12-27T02:38:58.445Z,62.95
2016-12-27T02:39:47.534Z,62.93
2016-12-27T02:40:44.693Z,62.97
2016-12-27T02:41:44.300Z,62.97
2016-12-27T02:42:51.204Z,62.96
2016-12-27T02:43:38.439Z,62.94
2016-12-27T02:44:44.970Z,62.95
2016-12-27T02:45:46.775Z,62.94
2016-12-27T02:46:44.634Z,62.99
2016-12-27T02:47:50.725Z,63.00
2016-12-27T02:48:50.666Z,62.96
2016-12-27T02:49:47.550Z,62.96
2016-12-27T02:50:43.977Z,62.97
2016-12-27T02:51:45.808Z,62.96
2016-12-27T02:52:44.982Z,63.03
2016-12-27T02:53:44.720Z,63.03
2016-12-27T02:54:46.277Z,63.03
2016-12-27T02:55:49.978Z,63.02
2016-12-27T02:56:49.014Z,63.02
2016-12-27T02:57:56.386Z,63.01
2016-12-27T02:58:43.818Z,63.03
2016-12-27T02:59:53.085Z,63.04
2016-12-27T03:00:47.090Z,63.04
2016-12-27T03:01:45.458Z,63.06
2016-12-27T03:02:50.313Z,63.07
2016-12-27T03:03:39.862Z,63.03
2016-12-27T03:04:44.014Z,63.01
2016-12-27T03:06:07.028Z,63.05
2016-12-27T03:06:44.606Z,63.00
2016-12-27T03:07:51.359Z,63.00
2016-12-27T03:08:52.966Z,63.05
2016-12-27T03:09:39.423Z,63.04
2016-12-27T03:10:49.753Z,63.01
2016-12-27T03:11:44.693Z,63.02
2016-12-27T03:12:50.363Z,63.02
2016-12-27T03:13:44.911Z,63.06
2016-12-27T03:14:47.258Z,62.99
2016-12-27T03:15:55.585Z,63.02
2016-12-27T03:16:46.110Z,63.01
2016-12-27T03:17:45.347Z,62.97
2016-12-27T03:18:34.337Z,62.99
2016-12-27T03:19:58.626Z,62.98
2016-12-27T03:20:45.192Z,62.96
2016-12-27T03:21:47.924Z,62.87
2016-12-27T03:22:38.105Z,61.94
2016-12-27T03:23:51.265Z,61.73
2016-12-27T03:24:55.869Z,61.79
2016-12-27T03:25:45.858Z,62.56
2016-12-27T03:26:51.470Z,62.73
2016-12-27T03:27:41.116Z,62.78
2016-12-27T03:28:44.715Z,62.86
2016-12-27T03:29:45.568Z,62.87
2016-12-27T03:30:42.410Z,62.90
2016-12-27T03:31:56.300Z,62.92
2016-12-27T03:32:53.881Z,62.89
2016-12-27T03:33:44.189Z,62.93
2016-12-27T03:34:44.470Z,62.89
2016-12-27T03:35:49.398Z,62.89
2016-12-27T03:36:45.533Z,62.90
2016-12-27T03:37:51.041Z,62.91
2016-12-27T03:38:47.075Z,62.92
2016-12-27T03:39:44.384Z,62.91
2016-12-27T03:40:38.633Z,62.94
2016-12-27T03:41:34.119Z,62.97
2016-12-27T03:42:50.294Z,62.95
2016-12-27T03:43:44.682Z,62.97
2016-12-27T03:44:52.535Z,62.97
2016-12-27T03:45:54.597Z,62.99
2016-12-27T03:46:44.971Z,63.00
2016-12-27T03:47:49.154Z,63.02
2016-12-27T03:48:46.820Z,63.02
2016-12-27T03:49:40.477Z,63.01
2016-12-27T03:50:45.669Z,63.03
2016-12-27T03:51:45.427Z,63.03
2016-12-27T03:52:50.299Z,63.05
2016-12-27T03:53:43.854Z,63.06
2016-12-27T03:54:47.622Z,63.07
2016-12-27T03:55:46.401Z,63.07
2016-12-27T03:56:45.741Z,63.08
2016-12-27T03:57:54.731Z,63.06
2016-12-27T03:58:44.188Z,63.03
2016-12-27T03:59:38.191Z,63.06
2016-12-27T04:00:33.066Z,63.08
2016-12-27T04:01:44.749Z,63.04
2016-12-27T04:02:39.241Z,63.04
2016-12-27T04:03:48.862Z,62.95
2016-12-27T04:04:39.868Z,62.05
2016-12-27T04:05:49.469Z,61.85
2016-12-27T04:06:48.276Z,61.73
2016-12-27T04:07:45.513Z,61.67
2016-12-27T04:08:55.176Z,61.63
2016-12-27T04:09:47.839Z,61.62
2016-12-27T04:10:38.858Z,61.59
2016-12-27T04:11:50.533Z,61.60
2016-12-27T04:12:45.610Z,61.59
2016-12-27T04:13:45.347Z,61.78
2016-12-27T04:14:43.086Z,61.55
2016-12-27T04:15:46.794Z,61.53
2016-12-27T04:16:42.558Z,61.57
2016-12-27T04:17:47.640Z,61.67
2016-12-27T04:18:45.922Z,61.54
2016-12-27T04:19:53.533Z,61.54
2016-12-27T04:20:53.640Z,61.54
2016-12-27T04:21:46.179Z,61.50
2016-12-27T04:22:50.249Z,61.51
2016-12-27T04:23:49.850Z,61.49
2016-12-27T04:24:33.698Z,61.75
2016-12-27T04:25:50.986Z,62.46
2016-12-27T04:26:40.045Z,62.65
2016-12-27T04:27:46.160Z,62.83
2016-12-27T04:28:35.593Z,62.87
2016-12-27T04:29:46.271Z,62.91
2016-12-27T04:30:43.908Z,62.95
2016-12-27T04:31:43.611Z,61.98
2016-12-27T04:32:44.669Z,61.77
2016-12-27T04:33:51.730Z,61.70
2016-12-27T04:34:39.841Z,61.63
2016-12-27T04:35:46.037Z,62.57
2016-12-27T04:36:43.998Z,62.79
2016-12-27T04:37:42.890Z,62.90
2016-12-27T04:38:50.456Z,62.94
2016-12-27T04:39:56.784Z,62.97
2016-12-27T04:40:44.642Z,62.99
2016-12-27T04:41:45.501Z,63.01
2016-12-27T04:42:46.505Z,63.00
2016-12-27T04:43:45.041Z,62.99
2016-12-27T04:44:44.192Z,63.05
2016-12-27T04:45:40.562Z,63.05
2016-12-27T04:46:33.702Z,63.08
2016-12-27T04:47:49.534Z,63.06
2016-12-27T04:48:47.521Z,63.04
2016-12-27T04:49:46.342Z,63.04
2016-12-27T04:50:45.874Z,63.06
2016-12-27T04:51:45.643Z,63.02
2016-12-27T04:52:47.470Z,63.03
2016-12-27T04:53:45.252Z,63.02
2016-12-27T04:54:44.911Z,63.04
2016-12-27T04:55:39.945Z,63.05
2016-12-27T04:56:43.983Z,63.02
2016-12-27T04:57:49.605Z,63.03
2016-12-27T04:58:55.539Z,63.03
2016-12-27T04:59:43.995Z,63.03
2016-12-27T05:00:47.648Z,63.02
2016-12-27T05:01:52.316Z,63.02
2016-12-27T05:03:01.232Z,63.06
2016-12-27T05:03:46.435Z,63.01
2016-12-27T05:04:57.457Z,63.02
2016-12-27T05:05:59.483Z,62.99
2016-12-27T05:06:50.961Z,62.98
2016-12-27T05:07:52.224Z,63.02
2016-12-27T05:08:42.687Z,62.99
2016-12-27T05:10:02.848Z,63.00
2016-12-27T05:10:42.525Z,63.01
2016-12-27T05:11:47.474Z,62.99
2016-12-27T05:12:56.977Z,63.00
2016-12-27T05:13:46.449Z,62.98
2016-12-27T05:14:46.484Z,63.00
2016-12-27T05:16:23.575Z,62.99
2016-12-27T05:16:45.465Z,63.00
2016-12-27T05:17:33.460Z,62.03
2016-12-27T05:18:46.246Z,61.80
2016-12-27T05:19:55.915Z,61.98
2016-12-27T05:20:45.466Z,62.64
2016-12-27T05:21:39.888Z,62.83
2016-12-27T05:22:51.477Z,62.92
2016-12-27T05:23:49.786Z,62.98
2016-12-27T05:24:49.752Z,62.97
2016-12-27T05:25:56.500Z,63.02
2016-12-27T05:26:50.246Z,63.03
2016-12-27T05:27:47.503Z,63.03
2016-12-27T05:28:54.718Z,63.03
2016-12-27T05:29:45.327Z,63.04
2016-12-27T05:30:40.470Z,63.07
2016-12-27T05:31:53.052Z,63.01
2016-12-27T05:32:47.438Z,63.05
2016-12-27T05:33:51.541Z,63.05
2016-12-27T05:34:43.558Z,63.04
2016-12-27T05:35:53.374Z,63.05
2016-12-27T05:36:44.344Z,62.26
2016-12-27T05:37:50.291Z,62.84
2016-12-27T05:38:51.431Z,62.93
2016-12-27T05:39:50.100Z,62.96
2016-12-27T05:40:50.303Z,63.01
2016-12-27T05:41:55.869Z,63.01
2016-12-27T05:42:49.011Z,63.02
2016-12-27T05:43:47.059Z,63.03
2016-12-27T05:44:50.770Z,63.00
2016-12-27T05:45:43.864Z,63.00
2016-12-27T05:47:24.092Z,63.07
2016-12-27T05:47:58.248Z,63.04
2016-12-27T05:48:47.332Z,63.03
2016-12-27T05:49:45.012Z,63.04
2016-12-27T05:50:49.926Z,63.02
2016-12-27T05:51:50.438Z,63.05
2016-12-27T05:52:49.824Z,63.05
2016-12-27T05:53:50.833Z,63.05
2016-12-27T05:54:58.932Z,63.06
2016-12-27T05:55:22.443Z,63.04
2016-12-27T05:56:52.141Z,63.05
2016-12-27T05:57:51.536Z,63.09
2016-12-27T05:58:45.535Z,63.05
2016-12-27T05:59:47.708Z,63.04
2016-12-27T06:00:52.544Z,63.07
2016-12-27T06:01:46.208Z,63.06
2016-12-27T06:02:49.391Z,63.06
2016-12-27T06:04:57.537Z,63.08
2016-12-27T06:05:02.803Z,63.06
2016-12-27T06:05:51.226Z,63.06
2016-12-27T06:06:46.168Z,63.04
2016-12-27T06:07:45.710Z,63.04
2016-12-27T06:09:01.562Z,63.09
2016-12-27T06:09:49.237Z,63.05
2016-12-27T06:10:45.129Z,63.05
2016-12-27T06:11:44.076Z,63.06
2016-12-27T06:12:41.753Z,63.04
2016-12-27T06:13:39.638Z,63.06
2016-12-27T06:14:56.214Z,63.04
2016-12-27T06:15:55.441Z,63.08
2016-12-27T06:16:56.723Z,63.08
2016-12-27T06:17:39.138Z,63.05
2016-12-27T06:18:44.708Z,63.07
2016-12-27T06:19:44.957Z,63.06
2016-12-27T06:20:47.643Z,63.05
2016-12-27T06:21:50.904Z,63.13
2016-12-27T06:22:43.582Z,63.16
2016-12-27T06:23:39.011Z,63.21
2016-12-27T06:24:43.642Z,63.20
2016-12-27T06:25:50.460Z,63.18
2016-12-27T06:26:50.817Z,63.18
2016-12-27T06:27:49.985Z,63.13
2016-12-27T06:28:48.926Z,63.10
2016-12-27T06:29:49.980Z,63.13
2016-12-27T06:30:46.010Z,63.06
2016-12-27T06:31:52.453Z,63.05
2016-12-27T06:32:45.663Z,63.04
2016-12-27T06:33:45.401Z,63.07
2016-12-27T06:34:45.474Z,63.06
2016-12-27T06:36:03.849Z,63.01
2016-12-27T06:36:41.463Z,63.02
2016-12-27T06:38:02.545Z,62.97
2016-12-27T06:38:59.318Z,62.97
2016-12-27T06:39:47.802Z,62.94
2016-12-27T06:40:47.810Z,62.95
2016-12-27T06:41:47.069Z,62.90
2016-12-27T06:42:50.244Z,62.93
2016-12-27T06:43:42.262Z,62.74
2016-12-27T06:44:45.162Z,61.88
2016-12-27T06:45:47.452Z,61.63
2016-12-27T06:46:44.680Z,61.53
2016-12-27T06:47:48.315Z,61.50
2016-12-27T06:48:58.492Z,61.42
2016-12-27T06:49:44.061Z,61.71
2016-12-27T06:50:40.075Z,62.37
2016-12-27T06:51:49.995Z,62.52
2016-12-27T06:52:43.956Z,62.60
2016-12-27T06:53:43.592Z,61.75
2016-12-27T06:54:57.223Z,62.47
2016-12-27T06:55:44.915Z,62.57
2016-12-27T06:56:50.694Z,62.66
2016-12-27T06:57:42.235Z,62.67
2016-12-27T06:58:44.552Z,62.64
2016-12-27T06:59:46.887Z,62.65
2016-12-27T07:00:49.390Z,62.64
2016-12-27T07:01:45.926Z,62.66
2016-12-27T07:02:38.440Z,62.66
2016-12-27T07:03:48.070Z,62.66
2016-12-27T07:04:47.839Z,62.64
2016-12-27T07:05:52.246Z,62.65
2016-12-27T07:06:47.266Z,62.65
2016-12-27T07:07:49.741Z,62.62
2016-12-27T07:08:46.269Z,62.64
2016-12-27T07:09:45.034Z,62.61
2016-12-27T07:10:42.568Z,62.60
2016-12-27T07:11:38.127Z,62.60
2016-12-27T07:12:38.767Z,62.59
2016-12-27T07:13:44.721Z,62.58
2016-12-27T07:14:47.206Z,62.58
2016-12-27T07:15:49.910Z,62.55
2016-12-27T07:16:45.761Z,62.56
2016-12-27T07:17:45.688Z,62.56
2016-12-27T07:18:45.671Z,62.55
2016-12-27T07:19:45.758Z,62.53
2016-12-27T07:20:41.036Z,62.58
2016-12-27T07:21:51.090Z,62.53
2016-12-27T07:22:57.624Z,62.52
2016-12-27T07:23:40.757Z,62.50
2016-12-27T07:24:50.619Z,62.53
2016-12-27T07:25:53.334Z,62.50
2016-12-27T07:26:48.314Z,62.49
2016-12-27T07:27:45.415Z,62.49
2016-12-27T07:28:49.816Z,62.49
2016-12-27T07:29:45.374Z,62.47
2016-12-27T07:30:50.046Z,62.46
2016-12-27T07:31:27.774Z,62.43
2016-12-27T07:32:50.945Z,62.45
2016-12-27T07:33:55.566Z,62.43
2016-12-27T07:34:45.546Z,62.43
2016-12-27T07:35:55.825Z,62.41
2016-12-27T07:36:44.413Z,62.41
2016-12-27T07:37:45.187Z,62.41
2016-12-27T07:38:50.431Z,62.41
2016-12-27T07:39:45.495Z,62.42
2016-12-27T07:40:45.483Z,62.42
2016-12-27T07:41:47.277Z,62.38
2016-12-27T07:42:55.580Z,62.38
2016-12-27T07:43:45.791Z,62.38
2016-12-27T07:44:45.574Z,62.35
2016-12-27T07:46:00.512Z,62.34
2016-12-27T07:46:51.140Z,62.33
2016-12-27T07:47:45.418Z,62.36
2016-12-27T07:48:46.222Z,62.38
2016-12-27T07:49:41.311Z,62.35
2016-12-27T07:50:37.663Z,62.32
2016-12-27T07:51:43.575Z,62.37
2016-12-27T07:52:46.201Z,62.35
2016-12-27T07:53:44.483Z,61.33
2016-12-27T07:54:50.767Z,62.12
2016-12-27T07:55:56.714Z,62.24
2016-12-27T07:56:50.545Z,62.27
2016-12-27T07:57:54.714Z,62.27
2016-12-27T07:58:48.080Z,62.27
2016-12-27T08:00:00.901Z,62.26
2016-12-27T08:00:44.556Z,62.27
2016-12-27T08:01:49.893Z,62.31
2016-12-27T08:02:34.353Z,62.28
2016-12-27T08:03:22.186Z,62.29
2016-12-27T08:04:54.177Z,62.25
2016-12-27T08:05:45.679Z,62.26
2016-12-27T08:06:48.471Z,62.28
2016-12-27T08:07:46.010Z,62.26
2016-12-27T08:08:49.835Z,62.23
2016-12-27T08:09:41.913Z,62.23
2016-12-27T08:10:50.426Z,62.26
2016-12-27T08:11:56.083Z,62.24
2016-12-27T08:12:51.769Z,62.22
2016-12-27T08:13:44.731Z,62.21
2016-12-27T08:14:45.830Z,62.17
2016-12-27T08:15:44.988Z,62.16
2016-12-27T08:16:55.189Z,62.19
2016-12-27T08:17:54.989Z,62.18
2016-12-27T08:18:52.539Z,62.18
2016-12-27T08:19:49.090Z,62.19
2016-12-27T08:21:05.571Z,62.19
2016-12-27T08:21:43.399Z,62.17
2016-12-27T08:22:44.386Z,62.13
2016-12-27T08:23:47.116Z,62.14
2016-12-27T08:24:51.923Z,62.14
2016-12-27T08:25:56.909Z,62.12
2016-12-27T08:26:46.799Z,62.15
2016-12-27T08:27:46.092Z,62.15
2016-12-27T08:28:43.052Z,62.15
2016-12-27T08:29:45.433Z,62.13
2016-12-27T08:30:51.055Z,62.13
2016-12-27T08:31:44.301Z,62.14
2016-12-27T08:32:49.536Z,62.15
2016-12-27T08:33:50.074Z,62.12
2016-12-27T08:34:49.021Z,62.12
2016-12-27T08:35:40.420Z,62.10
2016-12-27T08:36:56.239Z,62.12
2016-12-27T08:37:39.450Z,62.11
2016-12-27T08:38:51.220Z,62.09
2016-12-27T08:39:47.026Z,62.08
2016-12-27T08:40:52.640Z,62.05
2016-12-27T08:41:43.381Z,62.06
2016-12-27T08:42:45.593Z,62.08
2016-12-27T08:43:34.687Z,62.08
2016-12-27T08:44:49.089Z,62.07
2016-12-27T08:45:57.130Z,62.06
2016-12-27T08:46:52.684Z,62.06
2016-12-27T08:47:50.909Z,62.08
2016-12-27T08:48:42.202Z,62.06
2016-12-27T08:49:45.862Z,62.03
2016-12-27T08:50:52.989Z,62.06
2016-12-27T08:52:00.088Z,62.01
2016-12-27T08:52:37.124Z,62.02
2016-12-27T08:53:45.669Z,61.90
2016-12-27T08:54:54.144Z,61.07
2016-12-27T08:55:54.570Z,60.81
2016-12-27T08:56:46.122Z,60.73
2016-12-27T08:58:26.153Z,60.68
2016-12-27T08:58:54.563Z,60.66
2016-12-27T08:59:49.437Z,60.63
2016-12-27T09:00:51.007Z,60.59
2016-12-27T09:01:53.382Z,60.58
2016-12-27T09:02:45.119Z,60.52
2016-12-27T09:03:52.032Z,60.57
2016-12-27T09:04:43.125Z,60.60
2016-12-27T09:05:50.510Z,61.55
2016-12-27T09:06:53.225Z,61.74
2016-12-27T09:07:40.700Z,61.81
2016-12-27T09:08:50.016Z,61.89
2016-12-27T09:09:52.153Z,61.92
2016-12-27T09:10:51.118Z,61.93
2016-12-27T09:11:53.186Z,61.91
2016-12-27T09:12:46.069Z,61.95
2016-12-27T09:13:51.117Z,61.95
2016-12-27T09:14:52.135Z,61.96
2016-12-27T09:16:32.935Z,61.92
2016-12-27T09:16:49.968Z,61.93
2016-12-27T09:17:45.650Z,61.94
2016-12-27T09:18:47.724Z,61.94
2016-12-27T09:19:44.705Z,61.94
2016-12-27T09:20:59.779Z,61.94
2016-12-27T09:21:48.638Z,61.93
2016-12-27T09:22:58.854Z,61.94
2016-12-27T09:23:39.117Z,61.91
2016-12-27T09:24:48.138Z,61.91
2016-12-27T09:25:49.505Z,61.92
2016-12-27T09:26:45.388Z,61.88
2016-12-27T09:27:40.508Z,61.88
2016-12-27T09:28:43.953Z,61.85
2016-12-27T09:29:56.133Z,61.88
2016-12-27T09:30:46.536Z,61.73
2016-12-27T09:31:53.637Z,61.41
2016-12-27T09:32:42.757Z,61.69
2016-12-27T09:33:39.817Z,61.78
2016-12-27T09:34:44.710Z,61.79
2016-12-27T09:35:39.579Z,61.82
2016-12-27T09:36:59.671Z,61.83
2016-12-27T09:37:43.608Z,61.83
2016-12-27T09:38:51.656Z,61.86
2016-12-27T09:39:44.049Z,61.88
2016-12-27T09:40:39.408Z,61.88
2016-12-27T09:41:24.314Z,61.88
2016-12-27T09:42:40.210Z,61.90
2016-12-27T09:43:38.871Z,61.88
2016-12-27T09:44:36.533Z,61.90
2016-12-27T09:45:44.035Z,61.88
2016-12-27T09:46:44.481Z,61.88
2016-12-27T09:47:46.352Z,61.89
2016-12-27T09:48:56.791Z,61.93
2016-12-27T09:49:30.158Z,61.92
2016-12-27T09:50:52.440Z,61.93
2016-12-27T09:51:46.309Z,61.89
2016-12-27T09:52:38.546Z,61.87
2016-12-27T09:53:41.156Z,61.88
2016-12-27T09:54:49.997Z,61.89
2016-12-27T09:55:44.449Z,61.90
2016-12-27T09:56:59.638Z,61.88
2016-12-27T09:57:44.149Z,61.92
2016-12-27T09:58:45.410Z,61.93
2016-12-27T09:59:44.054Z,61.88
2016-12-27T10:00:44.159Z,61.90
2016-12-27T10:01:52.028Z,62.08
2016-12-27T10:02:49.307Z,62.51
2016-12-27T10:03:44.197Z,62.75
2016-12-27T10:04:44.469Z,62.77
2016-12-27T10:05:43.578Z,61.95
2016-12-27T10:06:39.849Z,62.02
2016-12-27T10:07:45.617Z,61.57
2016-12-27T10:08:45.371Z,60.72
2016-12-27T10:09:44.629Z,60.17
2016-12-27T10:10:39.168Z,60.09
2016-12-27T10:11:48.207Z,60.15
2016-12-27T10:12:39.841Z,59.81
2016-12-27T10:13:48.167Z,59.58
2016-12-27T10:14:45.850Z,60.08
2016-12-27T10:15:40.270Z,59.16
2016-12-27T10:16:40.373Z,57.28
2016-12-27T10:17:34.614Z,58.04
2016-12-27T10:18:47.260Z,56.50
2016-12-27T10:19:44.460Z,56.04
2016-12-27T10:20:49.885Z,55.75
2016-12-27T10:21:42.900Z,56.70
2016-12-27T10:22:44.732Z,57.28
2016-12-27T10:23:42.849Z,57.45
2016-12-27T10:24:38.411Z,55.32
2016-12-27T10:25:46.680Z,54.34
2016-12-27T10:26:41.992Z,53.88
2016-12-27T10:27:43.694Z,54.74
2016-12-27T10:28:39.731Z,53.25
2016-12-27T10:29:43.501Z,52.52
2016-12-27T10:30:45.682Z,54.12
2016-12-27T10:31:39.931Z,52.70
2016-12-27T10:32:44.124Z,53.84
2016-12-27T10:33:40.681Z,53.32
2016-12-27T10:34:43.728Z,54.06
2016-12-27T10:35:47.252Z,52.62
2016-12-27T10:36:50.330Z,52.28
2016-12-27T10:37:33.542Z,54.37
2016-12-27T10:38:46.321Z,52.39
2016-12-27T10:39:51.856Z,53.59
2016-12-27T10:40:51.820Z,47.28
2016-12-27T10:41:41.206Z,44.56
2016-12-27T10:42:50.069Z,42.64
2016-12-27T10:43:42.028Z,42.09
2016-12-27T10:44:55.838Z,43.56
2016-12-27T10:45:42.645Z,42.07
2016-12-27T10:46:52.806Z,41.82
2016-12-27T10:47:48.927Z,41.97
2016-12-27T10:48:31.858Z,42.08
2016-12-27T10:49:31.315Z,42.60
2016-12-27T10:50:38.740Z,42.32
2016-12-27T10:51:39.668Z,42.98
2016-12-27T10:52:52.104Z,41.55
2016-12-27T10:53:45.685Z,40.30
2016-12-27T10:54:52.600Z,41.02
2016-12-27T10:55:51.210Z,41.41
2016-12-27T10:56:38.009Z,40.76
2016-12-27T10:57:51.483Z,41.94
2016-12-27T10:58:58.767Z,42.71
2016-12-27T10:59:27.893Z,43.32
2016-12-27T11:00:51.009Z,43.62
2016-12-27T11:01:57.419Z,44.17
2016-12-27T11:02:42.938Z,43.16
2016-12-27T11:03:39.306Z,43.15
2016-12-27T11:04:56.873Z,42.80
2016-12-27T11:05:56.310Z,42.85
2016-12-27T11:06:57.598Z,42.39
2016-12-27T11:08:03.767Z,42.06
2016-12-27T11:08:46.337Z,41.90
2016-12-27T11:10:02.154Z,43.64
2016-12-27T11:10:46.448Z,43.87
2016-12-27T11:11:40.132Z,43.85
2016-12-27T11:12:39.800Z,43.94
2016-12-27T11:13:44.218Z,43.78
2016-12-27T11:14:44.242Z,43.78
2016-12-27T11:15:45.354Z,44.11
2016-12-27T11:16:38.063Z,44.11
2016-12-27T11:17:51.146Z,44.24
2016-12-27T11:18:51.137Z,44.17
2016-12-27T11:19:49.795Z,44.31
2016-12-27T11:20:41.852Z,44.57
2016-12-27T11:21:38.518Z,44.89
2016-12-27T11:22:46.594Z,44.92
2016-12-27T11:23:51.551Z,44.94
2016-12-27T11:24:44.327Z,45.13
2016-12-27T11:25:42.071Z,44.95
2016-12-27T11:26:53.314Z,45.49
2016-12-27T11:27:56.846Z,45.55
2016-12-27T11:28:46.323Z,45.68
2016-12-27T11:29:43.847Z,45.82
2016-12-27T11:30:50.918Z,45.97
2016-12-27T11:31:45.574Z,46.17
2016-12-27T11:32:44.177Z,46.23
2016-12-27T11:33:44.163Z,46.35
2016-12-27T11:34:49.912Z,46.54
2016-12-27T11:35:49.747Z,46.70
2016-12-27T11:36:44.847Z,46.78
2016-12-27T11:37:51.522Z,47.08
2016-12-27T11:38:54.559Z,47.25
2016-12-27T11:39:43.751Z,47.35
2016-12-27T11:40:52.759Z,47.56
2016-12-27T11:41:37.414Z,47.63
2016-12-27T11:42:56.233Z,47.73
2016-12-27T11:43:38.436Z,47.83
2016-12-27T11:45:00.721Z,47.96
2016-12-27T11:46:00.720Z,48.01
2016-12-27T11:46:43.566Z,48.14
2016-12-27T11:47:45.862Z,48.30
2016-12-27T11:48:50.552Z,48.40
2016-12-27T11:49:48.719Z,48.53
2016-12-27T11:50:50.343Z,48.61
2016-12-27T11:51:52.123Z,48.69
2016-12-27T11:52:44.123Z,48.85
2016-12-27T11:53:43.987Z,48.95
2016-12-27T11:54:45.508Z,49.08
2016-12-27T11:55:49.791Z,49.20
2016-12-27T11:56:52.150Z,49.32
2016-12-27T11:57:44.719Z,49.48
2016-12-27T11:58:51.250Z,49.61
2016-12-27T11:59:50.030Z,49.73
2016-12-27T12:00:46.497Z,49.81
2016-12-27T12:01:52.261Z,49.91
2016-12-27T12:02:45.467Z,50.03
2016-12-27T12:03:44.616Z,50.12
2016-12-27T12:04:46.399Z,50.20
2016-12-27T12:05:44.261Z,50.31
2016-12-27T12:06:58.047Z,50.39
2016-12-27T12:07:50.109Z,50.43
2016-12-27T12:08:51.331Z,50.50
2016-12-27T12:09:38.478Z,50.64
2016-12-27T12:10:48.339Z,50.70
2016-12-27T12:11:46.253Z,50.79
2016-12-27T12:13:03.567Z,50.94
2016-12-27T12:13:48.175Z,50.94
2016-12-27T12:14:40.822Z,51.10
2016-12-27T12:15:44.277Z,51.18
2016-12-27T12:16:53.560Z,51.26
2016-12-27T12:17:46.841Z,51.35
2016-12-27T12:18:50.894Z,51.44
2016-12-27T12:19:45.855Z,51.46
2016-12-27T12:20:45.395Z,51.52
2016-12-27T12:21:57.274Z,51.46
2016-12-27T12:22:51.652Z,50.84
2016-12-27T12:23:51.474Z,50.71
2016-12-27T12:24:51.509Z,50.99
2016-12-27T12:26:20.367Z,51.55
2016-12-27T12:26:44.617Z,51.78
2016-12-27T12:27:44.293Z,51.89
2016-12-27T12:28:41.212Z,51.94
2016-12-27T12:29:47.394Z,52.06
2016-12-27T12:30:40.176Z,52.13
2016-12-27T12:31:47.137Z,52.19
2016-12-27T12:32:51.161Z,52.26
2016-12-27T12:33:48.591Z,52.30
2016-12-27T12:34:56.160Z,52.42
2016-12-27T12:35:49.602Z,52.50
2016-12-27T12:36:44.700Z,52.52
2016-12-27T12:37:51.936Z,52.58
2016-12-27T12:38:39.909Z,52.55
2016-12-27T12:39:50.339Z,52.68
2016-12-27T12:40:40.226Z,52.62
2016-12-27T12:41:32.984Z,52.99
2016-12-27T12:42:55.385Z,53.29
2016-12-27T12:43:51.433Z,53.63
2016-12-27T12:44:39.522Z,53.71
2016-12-27T12:45:47.750Z,53.90
2016-12-27T12:46:39.144Z,54.30
2016-12-27T12:47:51.973Z,54.24
2016-12-27T12:48:44.204Z,54.79
2016-12-27T12:49:49.795Z,55.07
2016-12-27T12:50:47.433Z,55.38
2016-12-27T12:51:49.437Z,55.29
2016-12-27T12:52:49.459Z,55.29